sensor_id;sensor_type;location;lat;lon;timestamp;temperature;humidity
79489;SHT31;68949;53.176;18.088;2024-03-29T00:00:57;8.91;69.58
79489;SHT31;68949;53.176;18.088;2024-03-29T00:03:45;8.88;69.54
79489;SHT31;68949;53.176;18.088;2024-03-29T00:06:12;8.83;69.61
79489;SHT31;68949;53.176;18.088;2024-03-29T00:08:38;8.80;69.69
79489;SHT31;68949;53.176;18.088;2024-03-29T00:11:05;8.77;69.74
79489;SHT31;68949;53.176;18.088;2024-03-29T00:13:31;8.71;69.81
79489;SHT31;68949;53.176;18.088;2024-03-29T00:15:58;8.65;69.97
79489;SHT31;68949;53.176;18.088;2024-03-29T00:18:25;8.58;70.13
79489;SHT31;68949;53.176;18.088;2024-03-29T00:20:51;8.53;70.26
79489;SHT31;68949;53.176;18.088;2024-03-29T00:23:18;8.51;70.31
79489;SHT31;68949;53.176;18.088;2024-03-29T00:25:44;8.46;70.41
79489;SHT31;68949;53.176;18.088;2024-03-29T00:28:11;8.41;70.54
79489;SHT31;68949;53.176;18.088;2024-03-29T00:30:38;8.34;70.72
79489;SHT31;68949;53.176;18.088;2024-03-29T00:33:04;8.27;70.91
79489;SHT31;68949;53.176;18.088;2024-03-29T00:35:31;8.20;71.12
79489;SHT31;68949;53.176;18.088;2024-03-29T00:37:58;8.16;71.20
79489;SHT31;68949;53.176;18.088;2024-03-29T00:40:25;8.16;71.19
79489;SHT31;68949;53.176;18.088;2024-03-29T00:42:51;8.16;71.18
79489;SHT31;68949;53.176;18.088;2024-03-29T00:45:18;8.17;71.17
79489;SHT31;68949;53.176;18.088;2024-03-29T00:47:44;8.13;71.25
79489;SHT31;68949;53.176;18.088;2024-03-29T00:50:11;8.06;71.39
79489;SHT31;68949;53.176;18.088;2024-03-29T00:52:37;8.02;71.51
79489;SHT31;68949;53.176;18.088;2024-03-29T00:55:04;7.98;71.64
79489;SHT31;68949;53.176;18.088;2024-03-29T00:57:31;7.95;71.69
79489;SHT31;68949;53.176;18.088;2024-03-29T00:59:58;7.93;71.75
79489;SHT31;68949;53.176;18.088;2024-03-29T01:02:25;7.91;71.80
79489;SHT31;68949;53.176;18.088;2024-03-29T01:04:51;7.87;71.95
79489;SHT31;68949;53.176;18.088;2024-03-29T01:07:18;7.81;72.03
79489;SHT31;68949;53.176;18.088;2024-03-29T01:09:45;7.78;72.09
79489;SHT31;68949;53.176;18.088;2024-03-29T01:12:11;7.75;72.16
79489;SHT31;68949;53.176;18.088;2024-03-29T01:14:38;7.72;72.19
79489;SHT31;68949;53.176;18.088;2024-03-29T01:17:04;7.70;72.27
79489;SHT31;68949;53.176;18.088;2024-03-29T01:19:32;7.68;72.31
79489;SHT31;68949;53.176;18.088;2024-03-29T01:21:59;7.63;72.34
79489;SHT31;68949;53.176;18.088;2024-03-29T01:24:26;7.58;72.49
79489;SHT31;68949;53.176;18.088;2024-03-29T01:26:52;7.55;72.42
79489;SHT31;68949;53.176;18.088;2024-03-29T01:29:20;7.53;72.49
79489;SHT31;68949;53.176;18.088;2024-03-29T01:31:46;7.48;72.63
79489;SHT31;68949;53.176;18.088;2024-03-29T01:34:13;7.43;72.70
79489;SHT31;68949;53.176;18.088;2024-03-29T01:36:40;7.42;72.76
79489;SHT31;68949;53.176;18.088;2024-03-29T01:39:06;7.39;72.81
79489;SHT31;68949;53.176;18.088;2024-03-29T01:41:34;7.36;72.95
79489;SHT31;68949;53.176;18.088;2024-03-29T01:44:01;7.33;73.05
79489;SHT31;68949;53.176;18.088;2024-03-29T01:46:28;7.30;73.16
79489;SHT31;68949;53.176;18.088;2024-03-29T01:48:54;7.25;73.22
79489;SHT31;68949;53.176;18.088;2024-03-29T01:51:21;7.21;73.33
79489;SHT31;68949;53.176;18.088;2024-03-29T01:53:50;7.18;73.42
79489;SHT31;68949;53.176;18.088;2024-03-29T01:56:21;7.17;73.58
79489;SHT31;68949;53.176;18.088;2024-03-29T01:58:50;7.15;73.68
79489;SHT31;68949;53.176;18.088;2024-03-29T02:01:20;7.11;73.80
79489;SHT31;68949;53.176;18.088;2024-03-29T02:03:48;7.07;73.92
79489;SHT31;68949;53.176;18.088;2024-03-29T02:06:16;7.04;74.09
79489;SHT31;68949;53.176;18.088;2024-03-29T02:08:43;7.02;74.21
79489;SHT31;68949;53.176;18.088;2024-03-29T02:11:10;7.03;74.20
79489;SHT31;68949;53.176;18.088;2024-03-29T02:13:37;7.03;74.22
79489;SHT31;68949;53.176;18.088;2024-03-29T02:16:03;7.01;74.31
79489;SHT31;68949;53.176;18.088;2024-03-29T02:18:30;6.98;74.42
79489;SHT31;68949;53.176;18.088;2024-03-29T02:20:57;6.95;74.41
79489;SHT31;68949;53.176;18.088;2024-03-29T02:23:26;6.95;74.38
79489;SHT31;68949;53.176;18.088;2024-03-29T02:25:55;6.93;74.45
79489;SHT31;68949;53.176;18.088;2024-03-29T02:28:22;6.91;74.54
79489;SHT31;68949;53.176;18.088;2024-03-29T02:30:50;6.86;74.60
79489;SHT31;68949;53.176;18.088;2024-03-29T02:33:17;6.85;74.66
79489;SHT31;68949;53.176;18.088;2024-03-29T02:35:43;6.83;74.70
79489;SHT31;68949;53.176;18.088;2024-03-29T02:38:10;6.85;74.61
79489;SHT31;68949;53.176;18.088;2024-03-29T02:40:36;6.83;74.70
79489;SHT31;68949;53.176;18.088;2024-03-29T02:43:03;6.80;74.77
79489;SHT31;68949;53.176;18.088;2024-03-29T02:45:30;6.78;74.87
79489;SHT31;68949;53.176;18.088;2024-03-29T02:47:56;6.74;74.86
79489;SHT31;68949;53.176;18.088;2024-03-29T02:50:23;6.71;74.99
79489;SHT31;68949;53.176;18.088;2024-03-29T02:52:51;6.70;74.98
79489;SHT31;68949;53.176;18.088;2024-03-29T02:55:19;6.68;75.05
79489;SHT31;68949;53.176;18.088;2024-03-29T02:57:46;6.64;75.10
79489;SHT31;68949;53.176;18.088;2024-03-29T03:00:13;6.61;75.21
79489;SHT31;68949;53.176;18.088;2024-03-29T03:02:40;6.56;75.35
79489;SHT31;68949;53.176;18.088;2024-03-29T03:05:07;6.52;75.43
79489;SHT31;68949;53.176;18.088;2024-03-29T03:07:35;6.50;75.47
79489;SHT31;68949;53.176;18.088;2024-03-29T03:10:20;6.45;75.61
79489;SHT31;68949;53.176;18.088;2024-03-29T03:13:06;6.40;75.77
79489;SHT31;68949;53.176;18.088;2024-03-29T03:15:32;6.38;75.73
79489;SHT31;68949;53.176;18.088;2024-03-29T03:17:59;6.36;75.64
79489;SHT31;68949;53.176;18.088;2024-03-29T03:20:25;6.36;75.70
79489;SHT31;68949;53.176;18.088;2024-03-29T03:22:57;6.35;75.77
79489;SHT31;68949;53.176;18.088;2024-03-29T03:25:27;6.33;75.84
79489;SHT31;68949;53.176;18.088;2024-03-29T03:27:53;6.28;75.82
79489;SHT31;68949;53.176;18.088;2024-03-29T03:30:20;6.25;75.81
79489;SHT31;68949;53.176;18.088;2024-03-29T03:32:48;6.20;75.87
79489;SHT31;68949;53.176;18.088;2024-03-29T03:35:15;6.15;76.01
79489;SHT31;68949;53.176;18.088;2024-03-29T03:37:41;6.13;76.10
79489;SHT31;68949;53.176;18.088;2024-03-29T03:40:08;6.09;76.22
79489;SHT31;68949;53.176;18.088;2024-03-29T03:42:35;6.09;76.35
79489;SHT31;68949;53.176;18.088;2024-03-29T03:45:02;6.12;76.37
79489;SHT31;68949;53.176;18.088;2024-03-29T03:47:30;6.08;76.47
79489;SHT31;68949;53.176;18.088;2024-03-29T03:49:56;6.03;76.59
79489;SHT31;68949;53.176;18.088;2024-03-29T03:52:23;5.99;76.69
79489;SHT31;68949;53.176;18.088;2024-03-29T03:54:49;5.96;76.78
79489;SHT31;68949;53.176;18.088;2024-03-29T03:57:16;5.94;76.80
79489;SHT31;68949;53.176;18.088;2024-03-29T03:59:43;5.93;76.85
79489;SHT31;68949;53.176;18.088;2024-03-29T04:02:09;5.92;76.96
79489;SHT31;68949;53.176;18.088;2024-03-29T04:04:36;5.90;76.93
79489;SHT31;68949;53.176;18.088;2024-03-29T04:07:03;5.90;76.92
79489;SHT31;68949;53.176;18.088;2024-03-29T04:09:29;5.90;76.97
79489;SHT31;68949;53.176;18.088;2024-03-29T04:11:56;5.88;76.93
79489;SHT31;68949;53.176;18.088;2024-03-29T04:14:23;5.86;76.93
79489;SHT31;68949;53.176;18.088;2024-03-29T04:16:49;5.82;77.12
79489;SHT31;68949;53.176;18.088;2024-03-29T04:19:16;5.78;77.25
79489;SHT31;68949;53.176;18.088;2024-03-29T04:21:42;5.76;77.39
79489;SHT31;68949;53.176;18.088;2024-03-29T04:24:09;5.75;77.53
79489;SHT31;68949;53.176;18.088;2024-03-29T04:26:36;5.73;77.64
79489;SHT31;68949;53.176;18.088;2024-03-29T04:29:04;5.72;77.76
79489;SHT31;68949;53.176;18.088;2024-03-29T04:31:31;5.74;77.74
79489;SHT31;68949;53.176;18.088;2024-03-29T04:33:58;5.76;77.72
79489;SHT31;68949;53.176;18.088;2024-03-29T04:36:24;5.79;77.71
79489;SHT31;68949;53.176;18.088;2024-03-29T04:38:51;5.81;77.60
79489;SHT31;68949;53.176;18.088;2024-03-29T04:41:17;5.83;77.60
79489;SHT31;68949;53.176;18.088;2024-03-29T04:43:44;5.83;77.71
79489;SHT31;68949;53.176;18.088;2024-03-29T04:46:13;5.88;77.61
79489;SHT31;68949;53.176;18.088;2024-03-29T04:48:41;5.99;77.44
79489;SHT31;68949;53.176;18.088;2024-03-29T04:51:09;6.17;77.32
79489;SHT31;68949;53.176;18.088;2024-03-29T04:53:36;6.31;77.02
79489;SHT31;68949;53.176;18.088;2024-03-29T04:56:04;6.45;76.80
79489;SHT31;68949;53.176;18.088;2024-03-29T04:58:32;6.59;76.50
79489;SHT31;68949;53.176;18.088;2024-03-29T05:00:59;6.72;76.26
79489;SHT31;68949;53.176;18.088;2024-03-29T05:03:26;6.84;76.02
79489;SHT31;68949;53.176;18.088;2024-03-29T05:05:52;6.99;75.72
79489;SHT31;68949;53.176;18.088;2024-03-29T05:08:19;7.04;75.54
79489;SHT31;68949;53.176;18.088;2024-03-29T05:10:51;6.96;75.60
79489;SHT31;68949;53.176;18.088;2024-03-29T05:13:18;6.84;75.80
79489;SHT31;68949;53.176;18.088;2024-03-29T05:15:48;6.91;75.86
79489;SHT31;68949;53.176;18.088;2024-03-29T05:18:17;7.15;75.53
79489;SHT31;68949;53.176;18.088;2024-03-29T05:20:52;7.35;75.10
79489;SHT31;68949;53.176;18.088;2024-03-29T05:23:21;7.51;74.90
79489;SHT31;68949;53.176;18.088;2024-03-29T05:25:47;7.68;74.65
79489;SHT31;68949;53.176;18.088;2024-03-29T05:28:15;7.85;74.27
79489;SHT31;68949;53.176;18.088;2024-03-29T05:30:42;7.95;74.11
79489;SHT31;68949;53.176;18.088;2024-03-29T05:33:10;8.09;73.95
79489;SHT31;68949;53.176;18.088;2024-03-29T05:35:36;8.22;73.67
79489;SHT31;68949;53.176;18.088;2024-03-29T05:38:03;8.27;73.47
79489;SHT31;68949;53.176;18.088;2024-03-29T05:40:30;8.36;73.41
79489;SHT31;68949;53.176;18.088;2024-03-29T05:42:56;8.43;73.24
79489;SHT31;68949;53.176;18.088;2024-03-29T05:45:27;8.47;73.21
79489;SHT31;68949;53.176;18.088;2024-03-29T05:47:57;8.53;73.06
79489;SHT31;68949;53.176;18.088;2024-03-29T05:50:26;8.57;72.92
79489;SHT31;68949;53.176;18.088;2024-03-29T05:52:55;8.58;72.74
79489;SHT31;68949;53.176;18.088;2024-03-29T05:55:22;8.57;72.89
79489;SHT31;68949;53.176;18.088;2024-03-29T05:57:50;8.54;72.95
79489;SHT31;68949;53.176;18.088;2024-03-29T06:00:16;8.47;72.97
79489;SHT31;68949;53.176;18.088;2024-03-29T06:02:43;8.44;73.15
79489;SHT31;68949;53.176;18.088;2024-03-29T06:05:11;8.37;73.11
79489;SHT31;68949;53.176;18.088;2024-03-29T06:07:38;8.31;73.15
79489;SHT31;68949;53.176;18.088;2024-03-29T06:10:05;8.32;73.31
79489;SHT31;68949;53.176;18.088;2024-03-29T06:12:35;8.28;73.23
79489;SHT31;68949;53.176;18.088;2024-03-29T06:15:05;8.24;73.49
79489;SHT31;68949;53.176;18.088;2024-03-29T06:17:51;8.25;73.59
79489;SHT31;68949;53.176;18.088;2024-03-29T06:20:18;8.28;73.58
79489;SHT31;68949;53.176;18.088;2024-03-29T06:22:46;8.37;73.45
79489;SHT31;68949;53.176;18.088;2024-03-29T06:25:13;8.46;73.47
79489;SHT31;68949;53.176;18.088;2024-03-29T06:27:40;8.54;73.26
79489;SHT31;68949;53.176;18.088;2024-03-29T06:30:08;8.60;73.00
79489;SHT31;68949;53.176;18.088;2024-03-29T06:32:36;8.69;72.89
79489;SHT31;68949;53.176;18.088;2024-03-29T06:35:03;8.83;72.81
79489;SHT31;68949;53.176;18.088;2024-03-29T06:37:30;8.98;72.63
79489;SHT31;68949;53.176;18.088;2024-03-29T06:39:57;9.10;72.36
79489;SHT31;68949;53.176;18.088;2024-03-29T06:42:24;9.20;72.09
79489;SHT31;68949;53.176;18.088;2024-03-29T06:44:51;9.34;71.93
79489;SHT31;68949;53.176;18.088;2024-03-29T06:47:18;9.47;71.69
79489;SHT31;68949;53.176;18.088;2024-03-29T06:49:45;9.57;71.20
79489;SHT31;68949;53.176;18.088;2024-03-29T06:52:12;9.61;70.71
79489;SHT31;68949;53.176;18.088;2024-03-29T06:54:39;9.73;71.07
79489;SHT31;68949;53.176;18.088;2024-03-29T06:57:05;9.87;70.75
79489;SHT31;68949;53.176;18.088;2024-03-29T06:59:32;10.02;70.56
79489;SHT31;68949;53.176;18.088;2024-03-29T07:01:59;10.14;70.20
79489;SHT31;68949;53.176;18.088;2024-03-29T07:04:25;10.22;69.54
79489;SHT31;68949;53.176;18.088;2024-03-29T07:06:54;10.30;69.45
79489;SHT31;68949;53.176;18.088;2024-03-29T07:09:21;10.41;69.39
79489;SHT31;68949;53.176;18.088;2024-03-29T07:11:51;10.52;69.09
79489;SHT31;68949;53.176;18.088;2024-03-29T07:14:18;10.57;68.70
79489;SHT31;68949;53.176;18.088;2024-03-29T07:16:47;10.64;68.75
79489;SHT31;68949;53.176;18.088;2024-03-29T07:19:16;10.72;68.18
79489;SHT31;68949;53.176;18.088;2024-03-29T07:21:45;10.72;67.51
79489;SHT31;68949;53.176;18.088;2024-03-29T07:24:12;10.73;67.51
79489;SHT31;68949;53.176;18.088;2024-03-29T07:26:42;10.79;67.48
79489;SHT31;68949;53.176;18.088;2024-03-29T07:29:13;10.89;67.13
79489;SHT31;68949;53.176;18.088;2024-03-29T07:31:40;11.01;66.84
79489;SHT31;68949;53.176;18.088;2024-03-29T07:34:10;11.18;66.93
79489;SHT31;68949;53.176;18.088;2024-03-29T07:36:37;11.36;66.67
79489;SHT31;68949;53.176;18.088;2024-03-29T07:39:05;11.51;65.72
79489;SHT31;68949;53.176;18.088;2024-03-29T07:41:34;11.62;65.77
79489;SHT31;68949;53.176;18.088;2024-03-29T07:44:01;11.72;65.33
79489;SHT31;68949;53.176;18.088;2024-03-29T07:46:34;11.77;64.96
79489;SHT31;68949;53.176;18.088;2024-03-29T07:49:03;11.77;64.47
79489;SHT31;68949;53.176;18.088;2024-03-29T07:51:30;11.79;63.81
79489;SHT31;68949;53.176;18.088;2024-03-29T07:53:57;11.80;63.69
79489;SHT31;68949;53.176;18.088;2024-03-29T07:56:24;11.87;64.20
79489;SHT31;68949;53.176;18.088;2024-03-29T07:58:55;11.99;64.14
79489;SHT31;68949;53.176;18.088;2024-03-29T08:01:22;12.07;63.44
79489;SHT31;68949;53.176;18.088;2024-03-29T08:03:51;12.07;62.44
79489;SHT31;68949;53.176;18.088;2024-03-29T08:06:21;12.08;62.77
79489;SHT31;68949;53.176;18.088;2024-03-29T08:08:51;12.14;62.65
79489;SHT31;68949;53.176;18.088;2024-03-29T08:11:18;12.18;61.99
79489;SHT31;68949;53.176;18.088;2024-03-29T08:13:44;12.20;61.72
79489;SHT31;68949;53.176;18.088;2024-03-29T08:16:11;12.27;61.90
79489;SHT31;68949;53.176;18.088;2024-03-29T08:18:38;12.41;61.99
79489;SHT31;68949;53.176;18.088;2024-03-29T08:21:05;12.59;61.93
79489;SHT31;68949;53.176;18.088;2024-03-29T08:23:40;12.68;61.28
79489;SHT31;68949;53.176;18.088;2024-03-29T08:26:07;12.79;61.47
79489;SHT31;68949;53.176;18.088;2024-03-29T08:28:34;12.88;61.39
79489;SHT31;68949;53.176;18.088;2024-03-29T08:31:04;12.96;61.68
79489;SHT31;68949;53.176;18.088;2024-03-29T08:33:36;13.00;60.68
79489;SHT31;68949;53.176;18.088;2024-03-29T08:36:06;13.01;61.03
79489;SHT31;68949;53.176;18.088;2024-03-29T08:38:34;13.10;61.09
79489;SHT31;68949;53.176;18.088;2024-03-29T08:41:02;13.21;60.63
79489;SHT31;68949;53.176;18.088;2024-03-29T08:43:29;13.29;60.57
79489;SHT31;68949;53.176;18.088;2024-03-29T08:45:56;13.39;60.31
79489;SHT31;68949;53.176;18.088;2024-03-29T08:48:23;13.45;59.52
79489;SHT31;68949;53.176;18.088;2024-03-29T08:50:51;13.46;59.49
79489;SHT31;68949;53.176;18.088;2024-03-29T08:53:18;13.44;59.02
79489;SHT31;68949;53.176;18.088;2024-03-29T08:55:45;13.38;58.78
79489;SHT31;68949;53.176;18.088;2024-03-29T08:58:14;13.37;59.31
79489;SHT31;68949;53.176;18.088;2024-03-29T09:00:41;13.39;58.42
79489;SHT31;68949;53.176;18.088;2024-03-29T09:03:07;13.36;58.63
79489;SHT31;68949;53.176;18.088;2024-03-29T09:05:35;13.40;59.08
79489;SHT31;68949;53.176;18.088;2024-03-29T09:08:02;13.38;58.28
79489;SHT31;68949;53.176;18.088;2024-03-29T09:10:29;13.29;57.94
79489;SHT31;68949;53.176;18.088;2024-03-29T09:12:56;13.26;58.36
79489;SHT31;68949;53.176;18.088;2024-03-29T09:15:22;13.20;58.17
79489;SHT31;68949;53.176;18.088;2024-03-29T09:17:49;13.14;58.13
79489;SHT31;68949;53.176;18.088;2024-03-29T09:20:19;13.11;58.17
79489;SHT31;68949;53.176;18.088;2024-03-29T09:22:46;13.14;58.05
79489;SHT31;68949;53.176;18.088;2024-03-29T09:25:28;13.18;58.18
79489;SHT31;68949;53.176;18.088;2024-03-29T09:27:57;13.19;58.36
79489;SHT31;68949;53.176;18.088;2024-03-29T09:30:23;13.22;58.23
79489;SHT31;68949;53.176;18.088;2024-03-29T09:32:50;13.26;57.92
79489;SHT31;68949;53.176;18.088;2024-03-29T09:35:17;13.28;57.09
79489;SHT31;68949;53.176;18.088;2024-03-29T09:37:43;13.42;57.77
79489;SHT31;68949;53.176;18.088;2024-03-29T09:40:11;13.55;57.01
79489;SHT31;68949;53.176;18.088;2024-03-29T09:42:40;13.63;56.31
79489;SHT31;68949;53.176;18.088;2024-03-29T09:45:12;13.66;56.03
79489;SHT31;68949;53.176;18.088;2024-03-29T09:47:41;13.62;55.96
79489;SHT31;68949;53.176;18.088;2024-03-29T09:50:13;13.62;56.29
79489;SHT31;68949;53.176;18.088;2024-03-29T09:52:40;13.71;56.10
79489;SHT31;68949;53.176;18.088;2024-03-29T09:55:07;13.74;55.18
79489;SHT31;68949;53.176;18.088;2024-03-29T09:57:34;13.80;55.93
79489;SHT31;68949;53.176;18.088;2024-03-29T10:00:03;13.99;56.74
79489;SHT31;68949;53.176;18.088;2024-03-29T10:02:33;14.14;56.05
79489;SHT31;68949;53.176;18.088;2024-03-29T10:05:02;14.28;56.11
79489;SHT31;68949;53.176;18.088;2024-03-29T10:07:34;14.33;54.59
79489;SHT31;68949;53.176;18.088;2024-03-29T10:10:04;14.27;53.97
79489;SHT31;68949;53.176;18.088;2024-03-29T10:12:58;14.19;53.92
79489;SHT31;68949;53.176;18.088;2024-03-29T10:15:31;14.17;54.37
79489;SHT31;68949;53.176;18.088;2024-03-29T10:18:03;14.23;54.41
79489;SHT31;68949;53.176;18.088;2024-03-29T10:20:32;14.31;54.00
79489;SHT31;68949;53.176;18.088;2024-03-29T10:23:01;14.37;53.52
79489;SHT31;68949;53.176;18.088;2024-03-29T10:25:32;14.36;52.79
79489;SHT31;68949;53.176;18.088;2024-03-29T10:28:02;14.29;52.94
79489;SHT31;68949;53.176;18.088;2024-03-29T10:30:29;14.27;53.10
79489;SHT31;68949;53.176;18.088;2024-03-29T10:32:56;14.35;53.72
79489;SHT31;68949;53.176;18.088;2024-03-29T10:35:26;14.48;53.56
79489;SHT31;68949;53.176;18.088;2024-03-29T10:37:53;14.58;53.64
79489;SHT31;68949;53.176;18.088;2024-03-29T10:40:20;14.67;53.08
79489;SHT31;68949;53.176;18.088;2024-03-29T10:42:48;14.74;53.05
79489;SHT31;68949;53.176;18.088;2024-03-29T10:45:15;14.64;52.05
79489;SHT31;68949;53.176;18.088;2024-03-29T10:47:43;14.54;52.31
79489;SHT31;68949;53.176;18.088;2024-03-29T10:50:11;14.52;52.39
79489;SHT31;68949;53.176;18.088;2024-03-29T10:52:39;14.55;52.57
79489;SHT31;68949;53.176;18.088;2024-03-29T10:55:09;14.59;52.09
79489;SHT31;68949;53.176;18.088;2024-03-29T10:57:40;14.66;51.59
79489;SHT31;68949;53.176;18.088;2024-03-29T11:00:11;14.76;51.33
79489;SHT31;68949;53.176;18.088;2024-03-29T11:02:48;14.85;50.79
79489;SHT31;68949;53.176;18.088;2024-03-29T11:05:23;14.88;50.52
79489;SHT31;68949;53.176;18.088;2024-03-29T11:07:55;14.90;50.75
79489;SHT31;68949;53.176;18.088;2024-03-29T11:10:39;14.99;50.87
79489;SHT31;68949;53.176;18.088;2024-03-29T11:13:14;15.16;50.90
79489;SHT31;68949;53.176;18.088;2024-03-29T11:16:20;15.36;50.89
79489;SHT31;68949;53.176;18.088;2024-03-29T11:18:47;15.45;49.15
79489;SHT31;68949;53.176;18.088;2024-03-29T11:21:15;15.48;49.94
79489;SHT31;68949;53.176;18.088;2024-03-29T11:23:50;15.62;49.46
79489;SHT31;68949;53.176;18.088;2024-03-29T11:26:19;15.69;49.32
79489;SHT31;68949;53.176;18.088;2024-03-29T11:28:50;15.78;49.45
79489;SHT31;68949;53.176;18.088;2024-03-29T11:31:22;15.88;48.96
79489;SHT31;68949;53.176;18.088;2024-03-29T11:33:50;15.95;48.57
79489;SHT31;68949;53.176;18.088;2024-03-29T11:36:21;16.00;48.14
79489;SHT31;68949;53.176;18.088;2024-03-29T11:38:57;16.07;48.00
79489;SHT31;68949;53.176;18.088;2024-03-29T11:41:25;16.12;47.28
79489;SHT31;68949;53.176;18.088;2024-03-29T11:43:54;16.11;46.67
79489;SHT31;68949;53.176;18.088;2024-03-29T11:46:22;16.11;46.57
79489;SHT31;68949;53.176;18.088;2024-03-29T11:48:50;16.16;46.79
79489;SHT31;68949;53.176;18.088;2024-03-29T11:51:21;16.17;46.66
79489;SHT31;68949;53.176;18.088;2024-03-29T11:53:50;16.10;46.47
79489;SHT31;68949;53.176;18.088;2024-03-29T11:56:18;16.00;46.23
79489;SHT31;68949;53.176;18.088;2024-03-29T11:58:46;15.97;45.90
79489;SHT31;68949;53.176;18.088;2024-03-29T12:01:17;15.99;44.71
79489;SHT31;68949;53.176;18.088;2024-03-29T12:03:44;16.02;44.88
79489;SHT31;68949;53.176;18.088;2024-03-29T12:06:14;16.08;45.49
79489;SHT31;68949;53.176;18.088;2024-03-29T12:08:42;16.10;44.45
79489;SHT31;68949;53.176;18.088;2024-03-29T12:11:09;16.04;43.71
79489;SHT31;68949;53.176;18.088;2024-03-29T12:13:36;16.02;44.64
79489;SHT31;68949;53.176;18.088;2024-03-29T12:16:03;16.08;44.80
79489;SHT31;68949;53.176;18.088;2024-03-29T12:18:31;16.11;44.94
79489;SHT31;68949;53.176;18.088;2024-03-29T12:20:58;16.18;45.03
79489;SHT31;68949;53.176;18.088;2024-03-29T12:23:25;16.19;44.53
79489;SHT31;68949;53.176;18.088;2024-03-29T12:25:56;16.22;44.21
79489;SHT31;68949;53.176;18.088;2024-03-29T12:28:24;16.27;43.80
79489;SHT31;68949;53.176;18.088;2024-03-29T12:30:53;16.32;43.34
79489;SHT31;68949;53.176;18.088;2024-03-29T12:33:21;16.35;43.62
79489;SHT31;68949;53.176;18.088;2024-03-29T12:35:50;16.41;43.96
79489;SHT31;68949;53.176;18.088;2024-03-29T12:38:22;16.57;44.19
79489;SHT31;68949;53.176;18.088;2024-03-29T12:40:50;16.68;43.57
79489;SHT31;68949;53.176;18.088;2024-03-29T12:43:22;16.76;42.37
79489;SHT31;68949;53.176;18.088;2024-03-29T12:45:50;16.86;42.52
79489;SHT31;68949;53.176;18.088;2024-03-29T12:48:21;17.00;41.98
79489;SHT31;68949;53.176;18.088;2024-03-29T12:50:52;16.96;42.18
79489;SHT31;68949;53.176;18.088;2024-03-29T12:53:20;16.96;42.97
79489;SHT31;68949;53.176;18.088;2024-03-29T12:55:47;16.90;42.32
79489;SHT31;68949;53.176;18.088;2024-03-29T12:58:15;16.82;43.00
79489;SHT31;68949;53.176;18.088;2024-03-29T13:00:46;16.75;42.59
79489;SHT31;68949;53.176;18.088;2024-03-29T13:03:13;16.83;42.73
79489;SHT31;68949;53.176;18.088;2024-03-29T13:05:41;16.93;42.24
79489;SHT31;68949;53.176;18.088;2024-03-29T13:08:09;16.99;41.81
79489;SHT31;68949;53.176;18.088;2024-03-29T13:10:38;16.97;40.60
79489;SHT31;68949;53.176;18.088;2024-03-29T13:13:06;16.92;41.56
79489;SHT31;68949;53.176;18.088;2024-03-29T13:15:35;16.95;42.55
79489;SHT31;68949;53.176;18.088;2024-03-29T13:18:04;17.02;41.84
79489;SHT31;68949;53.176;18.088;2024-03-29T13:20:35;17.04;41.26
79489;SHT31;68949;53.176;18.088;2024-03-29T13:23:12;16.97;41.08
79489;SHT31;68949;53.176;18.088;2024-03-29T13:25:39;16.94;41.29
79489;SHT31;68949;53.176;18.088;2024-03-29T13:28:06;17.07;40.49
79489;SHT31;68949;53.176;18.088;2024-03-29T13:30:33;17.19;40.05
79489;SHT31;68949;53.176;18.088;2024-03-29T13:33:00;17.14;39.26
79489;SHT31;68949;53.176;18.088;2024-03-29T13:35:26;17.09;39.88
79489;SHT31;68949;53.176;18.088;2024-03-29T13:37:53;17.16;40.45
79489;SHT31;68949;53.176;18.088;2024-03-29T13:40:22;17.25;40.33
79489;SHT31;68949;53.176;18.088;2024-03-29T13:42:50;17.09;39.13
79489;SHT31;68949;53.176;18.088;2024-03-29T13:45:17;16.93;39.34
79489;SHT31;68949;53.176;18.088;2024-03-29T13:47:45;16.89;38.99
79489;SHT31;68949;53.176;18.088;2024-03-29T13:50:15;16.86;39.03
79489;SHT31;68949;53.176;18.088;2024-03-29T13:52:42;16.91;39.14
79489;SHT31;68949;53.176;18.088;2024-03-29T13:55:13;16.96;38.81
79489;SHT31;68949;53.176;18.088;2024-03-29T13:57:40;16.94;38.46
79489;SHT31;68949;53.176;18.088;2024-03-29T14:00:07;16.89;38.97
79489;SHT31;68949;53.176;18.088;2024-03-29T14:02:34;16.78;39.06
79489;SHT31;68949;53.176;18.088;2024-03-29T14:05:01;16.70;39.58
79489;SHT31;68949;53.176;18.088;2024-03-29T14:07:28;16.67;39.89
79489;SHT31;68949;53.176;18.088;2024-03-29T14:09:56;16.67;40.18
79489;SHT31;68949;53.176;18.088;2024-03-29T14:12:24;16.72;39.67
79489;SHT31;68949;53.176;18.088;2024-03-29T14:14:51;16.77;39.63
79489;SHT31;68949;53.176;18.088;2024-03-29T14:17:19;16.82;39.71
79489;SHT31;68949;53.176;18.088;2024-03-29T14:19:47;16.80;38.85
79489;SHT31;68949;53.176;18.088;2024-03-29T14:22:15;16.77;39.35
79489;SHT31;68949;53.176;18.088;2024-03-29T14:24:43;16.73;39.60
79489;SHT31;68949;53.176;18.088;2024-03-29T14:27:09;16.71;40.15
79489;SHT31;68949;53.176;18.088;2024-03-29T14:29:36;16.72;39.88
79489;SHT31;68949;53.176;18.088;2024-03-29T14:32:03;16.70;39.84
79489;SHT31;68949;53.176;18.088;2024-03-29T14:34:30;16.66;40.00
79489;SHT31;68949;53.176;18.088;2024-03-29T14:37:04;16.61;39.76
79489;SHT31;68949;53.176;18.088;2024-03-29T14:39:32;16.52;39.79
79489;SHT31;68949;53.176;18.088;2024-03-29T14:41:58;16.45;39.70
79489;SHT31;68949;53.176;18.088;2024-03-29T14:44:28;16.38;39.55
79489;SHT31;68949;53.176;18.088;2024-03-29T14:46:55;16.34;39.79
79489;SHT31;68949;53.176;18.088;2024-03-29T14:49:22;16.33;39.77
79489;SHT31;68949;53.176;18.088;2024-03-29T14:51:49;16.31;40.42
79489;SHT31;68949;53.176;18.088;2024-03-29T14:54:16;16.28;40.77
79489;SHT31;68949;53.176;18.088;2024-03-29T14:56:42;16.24;40.58
79489;SHT31;68949;53.176;18.088;2024-03-29T14:59:09;16.18;40.59
79489;SHT31;68949;53.176;18.088;2024-03-29T15:01:36;16.17;40.74
79489;SHT31;68949;53.176;18.088;2024-03-29T15:04:03;16.16;40.45
79489;SHT31;68949;53.176;18.088;2024-03-29T15:06:30;16.15;40.57
79489;SHT31;68949;53.176;18.088;2024-03-29T15:08:57;16.14;40.86
79489;SHT31;68949;53.176;18.088;2024-03-29T15:11:24;16.16;41.16
79489;SHT31;68949;53.176;18.088;2024-03-29T15:13:52;16.19;41.18
79489;SHT31;68949;53.176;18.088;2024-03-29T15:16:20;16.23;41.22
79489;SHT31;68949;53.176;18.088;2024-03-29T15:18:47;16.23;40.90
79489;SHT31;68949;53.176;18.088;2024-03-29T15:21:14;16.23;41.13
79489;SHT31;68949;53.176;18.088;2024-03-29T15:23:41;16.20;41.23
79489;SHT31;68949;53.176;18.088;2024-03-29T15:26:13;16.14;41.00
79489;SHT31;68949;53.176;18.088;2024-03-29T15:28:42;16.08;41.14